Time;durP1;ratioP1;P1;durP2;ratioP2;P2;SDS_P1;SDS_P2;PMS_P1;PMS_P2;Temp;Humidity;BMP_temperature;BMP_pressure;BME280_temperature;BME280_humidity;BME280_pressure;Samples;Min_cycle;Max_cycle;Signal;HPM_P1;HPM_P2
2022/04/03 00:01:54;;;;;;;4.90;4.30;;;4.40;98.40;;;;;;5102474;28;20199;-83
2022/04/03 00:04:23;;;;;;;8.00;4.35;;;4.50;98.30;;;;;;5112407;28;20195;-82
2022/04/03 00:06:50;;;;;;;6.13;3.30;;;4.50;98.20;;;;;;5113191;28;20217;-83
2022/04/03 00:09:17;;;;;;;4.97;3.65;;;4.60;98.20;;;;;;5110630;28;20190;-83
2022/04/03 00:11:45;;;;;;;5.13;4.35;;;4.60;97.90;;;;;;5111153;28;20234;-81
2022/04/03 00:14:12;;;;;;;6.13;4.43;;;4.50;98.20;;;;;;5115722;28;20198;-81
2022/04/03 00:16:40;;;;;;;5.60;4.68;;;4.50;98.50;;;;;;5114380;28;20293;-82
2022/04/03 00:19:08;;;;;;;7.13;5.88;;;4.40;99.20;;;;;;5116784;28;20329;-82
2022/04/03 00:21:36;;;;;;;5.40;4.90;;;4.30;99.80;;;;;;5116403;28;20171;-83
2022/04/03 00:24:03;;;;;;;5.70;5.20;;;4.30;99.90;;;;;;5117278;28;20182;-82
2022/04/03 00:26:30;;;;;;;7.65;4.30;;;4.30;99.90;;;;;;5117705;28;20237;-81
2022/04/03 00:28:59;;;;;;;7.22;4.60;;;4.30;99.90;;;;;;5117972;28;20187;-83
2022/04/03 00:31:25;;;;;;;8.95;5.55;;;4.20;99.90;;;;;;5117605;28;20174;-82
2022/04/03 00:33:52;;;;;;;4.45;3.95;;;4.20;99.90;;;;;;5117468;28;20217;-82
2022/04/03 00:36:19;;;;;;;6.07;5.28;;;4.30;99.90;;;;;;5108693;28;20246;-81
2022/04/03 00:38:46;;;;;;;8.50;5.35;;;4.20;99.90;;;;;;5116086;28;20182;-81
2022/04/03 00:41:14;;;;;;;6.53;4.07;;;4.10;99.90;;;;;;5117134;28;20190;-82
2022/04/03 00:43:41;;;;;;;6.95;4.30;;;4.10;99.90;;;;;;5116907;28;20225;-82
2022/04/03 00:46:11;;;;;;;5.57;4.85;;;4.10;99.90;;;;;;5116269;28;20251;-81
2022/04/03 00:48:38;;;;;;;7.63;5.00;;;4.10;99.90;;;;;;5116362;28;20210;-82
2022/04/03 00:51:04;;;;;;;8.90;4.25;;;4.10;99.90;;;;;;5116336;28;20190;-82
2022/04/03 00:53:31;;;;;;;5.60;5.10;;;4.30;99.90;;;;;;5115922;28;20309;-82
2022/04/03 00:55:58;;;;;;;6.32;4.90;;;4.20;99.90;;;;;;5116211;28;20207;-82
2022/04/03 00:58:25;;;;;;;7.70;4.88;;;4.20;99.90;;;;;;5120014;28;20197;-81
2022/04/03 01:00:52;;;;;;;5.45;4.35;;;4.20;99.90;;;;;;5119433;28;20208;-81
2022/04/03 01:03:21;;;;;;;5.40;4.30;;;4.20;99.90;;;;;;5108545;28;20229;-82
2022/04/03 01:05:48;;;;;;;6.72;4.85;;;4.10;99.90;;;;;;5106987;28;20205;-82
2022/04/03 01:08:15;;;;;;;8.63;5.05;;;4.10;99.90;;;;;;5120262;28;20209;-82
2022/04/03 01:10:42;;;;;;;6.45;5.00;;;4.10;99.90;;;;;;5119257;28;20234;-82
2022/04/03 01:13:11;;;;;;;5.90;4.13;;;4.10;99.90;;;;;;5127000;28;20232;-83
2022/04/03 01:15:38;;;;;;;8.80;4.80;;;4.00;99.90;;;;;;5111371;28;20248;-83
2022/04/03 01:18:05;;;;;;;5.28;4.70;;;3.90;99.90;;;;;;5109776;28;20209;-83
2022/04/03 01:20:35;;;;;;;5.10;4.60;;;3.90;99.90;;;;;;5127766;28;20229;-83
2022/04/03 01:23:02;;;;;;;8.52;4.97;;;3.80;99.90;;;;;;5126238;28;20230;-82
2022/04/03 01:25:30;;;;;;;6.22;5.15;;;3.80;99.90;;;;;;5113020;28;20210;-83
2022/04/03 01:27:58;;;;;;;5.97;5.22;;;3.70;99.90;;;;;;5105399;28;20198;-83
2022/04/03 01:30:25;;;;;;;9.30;5.05;;;3.70;99.90;;;;;;5107791;28;20323;-83
2022/04/03 01:32:52;;;;;;;5.63;4.32;;;3.50;99.90;;;;;;5108041;28;20260;-83
2022/04/03 01:35:19;;;;;;;6.45;4.32;;;3.50;99.90;;;;;;5106587;28;20278;-82
2022/04/03 01:37:46;;;;;;;5.10;3.80;;;3.50;99.90;;;;;;5107233;28;20216;-82
2022/04/03 01:40:14;;;;;;;4.43;3.05;;;3.40;99.90;;;;;;5107610;28;20283;-82
2022/04/03 01:42:42;;;;;;;4.65;3.67;;;3.40;99.90;;;;;;5113436;28;20757;-82
2022/04/03 01:45:10;;;;;;;8.90;5.05;;;3.40;99.90;;;;;;5118617;28;20264;-82
2022/04/03 01:47:37;;;;;;;5.35;3.78;;;3.30;99.90;;;;;;5109649;28;20222;-82
2022/04/03 01:50:05;;;;;;;4.93;4.07;;;3.50;99.90;;;;;;5108336;28;20273;-83
2022/04/03 01:52:33;;;;;;;5.57;3.47;;;3.20;99.90;;;;;;5121957;28;20253;-81
2022/04/03 01:55:00;;;;;;;3.83;3.15;;;3.30;99.90;;;;;;5108658;28;20202;-82
2022/04/03 01:57:27;;;;;;;5.97;2.70;;;3.30;99.90;;;;;;5106408;28;20221;-82
2022/04/03 01:59:55;;;;;;;4.07;2.70;;;3.30;99.90;;;;;;5104596;28;20201;-82
2022/04/03 02:02:22;;;;;;;3.00;2.70;;;3.30;99.90;;;;;;5106094;28;20734;-82
2022/04/03 02:04:49;;;;;;;4.90;3.42;;;3.40;99.90;;;;;;5106716;28;20673;-84
2022/04/03 02:07:16;;;;;;;7.32;3.42;;;3.40;99.90;;;;;;5116079;28;20269;-83
2022/04/03 02:09:43;;;;;;;7.78;3.15;;;3.50;99.90;;;;;;5106052;28;20240;-83
2022/04/03 02:12:11;;;;;;;5.18;3.20;;;3.50;99.90;;;;;;5107026;28;20837;-83
2022/04/03 02:14:37;;;;;;;5.80;3.13;;;3.50;99.90;;;;;;5106664;28;20200;-83
2022/04/03 02:17:07;;;;;;;5.75;3.22;;;3.50;99.90;;;;;;5100198;28;20286;-83
2022/04/03 02:19:34;;;;;;;5.10;3.20;;;3.60;99.90;;;;;;5097138;28;20264;-83
2022/04/03 02:22:01;;;;;;;4.35;3.00;;;3.60;99.90;;;;;;5108843;28;20216;-82
2022/04/03 02:24:30;;;;;;;6.20;3.13;;;3.60;99.90;;;;;;5108938;28;20216;-83
2022/04/03 02:26:56;;;;;;;6.20;3.20;;;3.60;99.90;;;;;;5110720;28;20251;-82
2022/04/03 02:29:24;;;;;;;5.85;3.33;;;3.70;99.90;;;;;;5122420;28;20304;-83
2022/04/03 02:31:51;;;;;;;4.18;3.55;;;3.80;99.90;;;;;;5120584;28;20208;-82
2022/04/03 02:34:19;;;;;;;8.35;3.28;;;3.80;99.90;;;;;;5113843;27;20204;-82
2022/04/03 02:36:46;;;;;;;4.82;3.80;;;3.70;99.90;;;;;;5116413;28;20245;-81
2022/04/03 02:39:13;;;;;;;4.15;2.63;;;3.70;99.90;;;;;;5124754;28;20213;-82
2022/04/03 02:41:41;;;;;;;3.97;3.17;;;3.60;99.90;;;;;;5114993;28;20214;-82
2022/04/03 02:44:08;;;;;;;6.18;3.35;;;3.60;99.90;;;;;;5125441;28;20285;-82
2022/04/03 02:46:35;;;;;;;3.70;2.80;;;3.50;99.90;;;;;;5123011;27;20208;-83
2022/04/03 02:49:02;;;;;;;4.95;3.35;;;3.40;99.90;;;;;;5107614;28;20206;-83
2022/04/03 02:51:30;;;;;;;3.78;2.72;;;3.20;99.90;;;;;;5120291;28;20286;-82
2022/04/03 02:53:57;;;;;;;3.92;2.78;;;3.20;99.90;;;;;;5105566;28;20213;-83
2022/04/03 02:56:24;;;;;;;5.47;4.05;;;3.10;99.90;;;;;;5106348;28;20283;-82
2022/04/03 02:58:51;;;;;;;7.80;4.20;;;3.00;99.90;;;;;;5111686;28;20202;-81
2022/04/03 03:01:18;;;;;;;5.80;3.53;;;3.00;99.90;;;;;;5120928;28;20221;-83
2022/04/03 03:03:44;;;;;;;3.88;3.58;;;2.90;99.90;;;;;;5130669;28;20230;-82
2022/04/03 03:06:11;;;;;;;7.32;4.30;;;2.80;99.90;;;;;;5136642;28;20210;-81
2022/04/03 03:08:39;;;;;;;5.18;3.47;;;2.70;99.90;;;;;;5121848;28;20217;-82
2022/04/03 03:11:06;;;;;;;6.47;3.63;;;2.60;99.90;;;;;;5139339;28;20194;-82
2022/04/03 03:13:33;;;;;;;6.47;3.80;;;2.60;99.90;;;;;;5138887;28;20225;-82
2022/04/03 03:16:00;;;;;;;4.28;3.30;;;2.50;99.90;;;;;;5137988;28;20224;-81
2022/04/03 03:18:30;;;;;;;5.63;3.60;;;2.60;99.90;;;;;;5118680;28;20196;-82
2022/04/03 03:20:57;;;;;;;5.97;3.45;;;2.50;99.90;;;;;;5118352;28;20189;-82
2022/04/03 03:23:24;;;;;;;11.63;3.40;;;2.50;99.90;;;;;;5118321;28;20278;-82
2022/04/03 03:25:52;;;;;;;4.75;3.53;;;2.40;99.90;;;;;;5119268;28;20214;-82
2022/04/03 03:28:19;;;;;;;4.22;3.80;;;2.40;99.90;;;;;;5108785;28;20207;-82
2022/04/03 03:30:46;;;;;;;6.53;4.07;;;2.30;99.90;;;;;;5098841;28;20233;-82
2022/04/03 03:33:14;;;;;;;3.95;3.58;;;2.20;99.90;;;;;;5111874;28;20218;-81
2022/04/03 03:35:41;;;;;;;6.72;4.38;;;2.30;99.90;;;;;;5108702;28;20202;-82
2022/04/03 03:38:09;;;;;;;6.47;3.90;;;2.30;99.90;;;;;;5109573;28;20218;-82
2022/04/03 03:40:38;;;;;;;5.07;3.45;;;2.40;99.90;;;;;;5109964;28;20202;-83
2022/04/03 03:43:07;;;;;;;5.65;3.50;;;2.30;99.90;;;;;;5118863;28;20668;-82
2022/04/03 03:45:34;;;;;;;3.55;3.15;;;2.30;99.90;;;;;;5119426;28;20263;-81
2022/04/03 03:48:01;;;;;;;3.83;3.17;;;2.50;99.90;;;;;;5109483;28;20217;-82
2022/04/03 03:50:28;;;;;;;5.80;4.30;;;2.30;99.90;;;;;;5103720;28;20586;-83
2022/04/03 03:52:55;;;;;;;4.63;3.55;;;2.30;99.90;;;;;;5107266;28;20256;-82
2022/04/03 03:55:22;;;;;;;4.35;3.55;;;2.40;99.90;;;;;;5109933;28;20312;-82
2022/04/03 03:57:49;;;;;;;3.88;3.10;;;2.30;99.90;;;;;;5105309;28;20677;-83
2022/04/03 04:00:18;;;;;;;6.57;4.20;;;2.50;99.90;;;;;;5103845;28;20229;-84
2022/04/03 04:02:45;;;;;;;8.02;3.33;;;2.30;99.90;;;;;;5110927;28;20228;-82
2022/04/03 04:05:12;;;;;;;5.40;4.00;;;2.20;99.90;;;;;;5112009;28;20257;-83
2022/04/03 04:07:40;;;;;;;4.43;3.28;;;2.20;99.90;;;;;;5104601;28;20266;-82
2022/04/03 04:10:08;;;;;;;7.10;3.35;;;2.10;99.90;;;;;;5104810;28;20210;-82
2022/04/03 04:12:36;;;;;;;3.08;2.78;;;2.10;99.90;;;;;;5115690;28;20244;-82
2022/04/03 04:15:03;;;;;;;5.70;4.30;;;2.10;99.90;;;;;;5100671;28;20206;-82
2022/04/03 04:17:36;;;;;;;4.75;4.10;;;2.10;99.90;;;;;;5103152;28;20218;-83
2022/04/03 04:20:03;;;;;;;5.88;3.20;;;1.90;99.90;;;;;;5096808;28;20601;-82
2022/04/03 04:22:31;;;;;;;5.25;3.50;;;1.80;99.90;;;;;;5103670;28;20643;-83
2022/04/03 04:24:58;;;;;;;6.47;3.55;;;1.90;99.90;;;;;;5101983;28;20210;-83
2022/04/03 04:27:25;;;;;;;6.15;3.80;;;1.80;99.90;;;;;;5099504;28;20198;-82
2022/04/03 04:29:51;;;;;;;6.80;3.50;;;1.80;99.90;;;;;;5109900;28;20201;-83
2022/04/03 04:32:21;;;;;;;4.53;3.53;;;1.80;99.90;;;;;;5104653;28;20313;-82
2022/04/03 04:34:50;;;;;;;4.18;3.78;;;1.80;99.90;;;;;;5105346;28;20207;-82
2022/04/03 04:37:17;;;;;;;3.97;3.30;;;1.70;99.90;;;;;;5103795;28;20221;-83
2022/04/03 04:39:44;;;;;;;7.15;3.70;;;1.70;99.90;;;;;;5108174;28;20220;-85
2022/04/03 04:42:11;;;;;;;6.60;3.33;;;1.70;99.90;;;;;;5101702;28;20234;-82
2022/04/03 04:44:38;;;;;;;6.15;3.65;;;1.80;99.90;;;;;;5097468;28;20186;-82
2022/04/03 04:47:05;;;;;;;4.10;3.50;;;1.90;99.90;;;;;;5105645;28;20215;-82
2022/04/03 04:49:33;;;;;;;5.63;3.75;;;1.60;99.90;;;;;;5110732;28;20206;-82
2022/04/03 04:52:01;;;;;;;7.25;4.15;;;1.80;99.90;;;;;;5101432;28;20246;-82
2022/04/03 04:54:29;;;;;;;4.00;3.13;;;1.70;99.90;;;;;;5098738;28;20263;-83
2022/04/03 04:56:56;;;;;;;5.10;3.10;;;1.70;99.90;;;;;;5101735;28;20222;-84
2022/04/03 04:59:23;;;;;;;3.55;3.13;;;1.80;99.90;;;;;;5119731;28;20189;-83
2022/04/03 05:01:50;;;;;;;4.80;3.30;;;2.00;99.90;;;;;;5110403;28;20304;-83
2022/04/03 05:04:17;;;;;;;4.75;2.80;;;1.80;99.90;;;;;;5115028;28;20192;-82
2022/04/03 05:06:44;;;;;;;3.90;3.15;;;1.80;99.90;;;;;;5105581;28;20208;-83
2022/04/03 05:09:13;;;;;;;5.28;3.25;;;1.80;99.90;;;;;;5101967;28;20223;-83
2022/04/03 05:11:41;;;;;;;7.07;3.25;;;1.80;99.90;;;;;;5101371;28;20305;-83
2022/04/03 05:14:08;;;;;;;7.35;3.35;;;1.80;99.90;;;;;;5098997;28;20240;-83
2022/04/03 05:16:35;;;;;;;4.82;3.05;;;1.80;99.90;;;;;;5101828;28;20698;-84
2022/04/03 05:19:02;;;;;;;6.68;2.83;;;1.80;99.90;;;;;;5103911;28;20198;-82
2022/04/03 05:21:29;;;;;;;2.90;2.30;;;1.80;99.90;;;;;;5116102;28;20252;-82
2022/04/03 05:23:56;;;;;;;4.57;3.28;;;1.80;99.90;;;;;;5107809;28;20298;-81
2022/04/03 05:26:24;;;;;;;3.35;3.03;;;1.90;99.90;;;;;;5119357;28;20216;-81
2022/04/03 05:28:51;;;;;;;3.20;2.92;;;1.90;99.90;;;;;;5114650;28;20527;-82
2022/04/03 05:31:18;;;;;;;4.45;2.95;;;2.00;99.90;;;;;;5114699;28;20194;-81
2022/04/03 05:33:46;;;;;;;6.70;3.55;;;2.00;99.90;;;;;;5111281;28;20226;-82
2022/04/03 05:36:13;;;;;;;4.70;3.20;;;2.10;99.90;;;;;;5093246;28;20575;-83
2022/04/03 05:38:39;;;;;;;7.45;3.10;;;2.40;99.90;;;;;;5115319;28;20225;-83
2022/04/03 05:41:06;;;;;;;7.75;4.35;;;2.20;99.90;;;;;;5115307;28;20213;-82
2022/04/03 05:43:35;;;;;;;4.40;3.45;;;2.30;99.90;;;;;;5109409;28;20237;-82
2022/04/03 05:46:02;;;;;;;4.38;2.90;;;2.40;99.90;;;;;;5130044;28;20202;-83
2022/04/03 05:48:30;;;;;;;3.58;3.03;;;2.60;99.90;;;;;;5124595;28;20221;-82
2022/04/03 05:50:57;;;;;;;4.40;3.38;;;2.60;99.90;;;;;;5117576;28;20209;-82
2022/04/03 05:53:24;;;;;;;4.47;3.25;;;2.80;99.90;;;;;;5118835;28;20206;-83
2022/04/03 05:55:51;;;;;;;6.72;4.00;;;2.80;99.90;;;;;;5117618;28;20224;-84
2022/04/03 05:58:18;;;;;;;3.15;2.85;;;3.10;99.90;;;;;;5108574;28;20313;-84
2022/04/03 06:00:46;;;;;;;4.80;4.28;;;3.30;99.90;;;;;;5113107;28;20232;-85
2022/04/03 06:03:15;;;;;;;5.32;3.30;;;3.90;99.90;;;;;;5095235;28;20637;-84
2022/04/03 06:05:42;;;;;;;3.25;2.80;;;4.20;99.90;;;;;;5106412;28;20255;-82
2022/04/03 06:08:10;;;;;;;6.00;4.05;;;3.90;99.90;;;;;;5095245;28;20202;-82
2022/04/03 06:10:37;;;;;;;4.43;3.67;;;4.20;99.90;;;;;;5102083;28;20243;-84
2022/04/03 06:13:06;;;;;;;3.70;3.35;;;4.20;99.90;;;;;;5107099;28;20225;-82
2022/04/03 06:15:34;;;;;;;7.00;3.75;;;4.20;99.90;;;;;;5116178;28;20221;-83
2022/04/03 06:18:12;;;;;;;6.00;3.85;;;4.40;99.90;;;;;;5115366;28;20246;-84
2022/04/03 06:20:40;;;;;;;9.38;6.70;;;4.40;99.90;;;;;;5125192;28;20193;-82
2022/04/03 06:23:11;;;;;;;5.68;4.10;;;4.20;99.90;;;;;;5116411;28;20248;-82
2022/04/03 06:25:38;;;;;;;6.55;3.92;;;4.30;99.90;;;;;;5113649;28;20224;-81
2022/04/03 06:28:05;;;;;;;6.20;3.22;;;4.40;99.90;;;;;;5107334;28;20267;-83
2022/04/03 06:30:32;;;;;;;3.95;3.30;;;4.40;99.90;;;;;;5108795;28;20232;-83
2022/04/03 06:32:59;;;;;;;5.53;3.05;;;4.40;99.90;;;;;;5109743;28;20585;-83
2022/04/03 06:35:27;;;;;;;3.97;3.58;;;4.50;99.90;;;;;;5097787;28;20233;-82
2022/04/03 06:37:54;;;;;;;6.20;3.45;;;4.60;99.90;;;;;;5106824;28;20214;-83
2022/04/03 06:40:23;;;;;;;4.10;2.78;;;4.90;99.90;;;;;;5107488;28;20198;-83
2022/04/03 06:42:50;;;;;;;4.53;3.60;;;5.00;99.90;;;;;;5112563;28;20241;-82
2022/04/03 06:45:17;;;;;;;5.45;3.40;;;4.90;99.90;;;;;;5105242;28;20269;-83
2022/04/03 06:47:45;;;;;;;4.50;4.10;;;4.90;99.90;;;;;;5111249;28;20236;-82
2022/04/03 06:50:12;;;;;;;4.75;3.40;;;4.70;99.90;;;;;;5106974;28;20240;-84
2022/04/03 06:52:41;;;;;;;4.45;3.30;;;4.60;99.90;;;;;;5105320;28;20296;-83
2022/04/03 06:55:09;;;;;;;4.10;3.58;;;4.50;99.90;;;;;;5105563;28;20754;-81
2022/04/03 06:57:36;;;;;;;3.13;2.72;;;4.50;99.90;;;;;;5107005;28;20217;-83
2022/04/03 07:00:05;;;;;;;4.00;2.50;;;4.60;99.90;;;;;;5106291;28;20226;-84
2022/04/03 07:02:32;;;;;;;3.85;2.28;;;5.50;99.90;;;;;;5105990;28;20230;-84
2022/04/03 07:04:59;;;;;;;4.88;2.80;;;7.20;99.90;;;;;;5108124;28;20635;-83
2022/04/03 07:07:26;;;;;;;3.22;1.90;;;9.00;99.90;;;;;;5109021;28;20198;-85
2022/04/03 07:09:55;;;;;;;2.88;2.05;;;10.20;96.10;;;;;;5107019;28;20224;-83
2022/04/03 07:12:23;;;;;;;3.33;1.95;;;11.40;94.10;;;;;;5089969;28;20252;-83
2022/04/03 07:14:50;;;;;;;14.25;3.28;;;12.20;92.30;;;;;;5113603;28;20236;-83
2022/04/03 07:17:17;;;;;;;6.60;3.30;;;12.70;90.10;;;;;;5114160;28;20226;-83
2022/04/03 07:19:44;;;;;;;3.33;2.20;;;12.80;89.50;;;;;;5118048;28;20238;-84
2022/04/03 07:22:22;;;;;;;6.82;3.35;;;12.50;89.40;;;;;;5121056;28;20294;-83
2022/04/03 07:27:18;;;;;;;3.05;2.33;;;11.60;90.30;;;;;;5063521;28;20228;-69
2022/04/03 07:29:45;;;;;;;2.15;1.60;;;11.10;90.70;;;;;;5058394;28;20320;-68
2022/04/03 07:32:12;;;;;;;2.25;1.63;;;10.60;92.50;;;;;;5058930;28;20558;-68
2022/04/03 07:34:39;;;;;;;5.50;2.42;;;10.10;94.70;;;;;;5049778;28;20314;-69
2022/04/03 07:37:06;;;;;;;4.88;2.47;;;9.90;95.90;;;;;;5054798;28;20204;-68
2022/04/03 07:39:33;;;;;;;4.55;1.88;;;9.50;96.50;;;;;;5057854;28;20312;-67
2022/04/03 07:42:01;;;;;;;1.85;1.58;;;9.50;96.80;;;;;;5054487;28;20203;-69
2022/04/03 07:44:29;;;;;;;4.45;1.95;;;9.30;96.50;;;;;;5056454;28;20285;-68
2022/04/03 07:46:56;;;;;;;2.72;2.30;;;9.00;96.90;;;;;;5052605;28;20211;-68
2022/04/03 07:49:23;;;;;;;2.97;2.15;;;8.50;98.50;;;;;;5053068;28;20282;-70
2022/04/03 07:51:50;;;;;;;3.63;2.42;;;8.20;99.50;;;;;;5052756;28;20883;-68
2022/04/03 07:54:18;;;;;;;2.90;2.10;;;7.60;99.90;;;;;;5049038;28;20225;-68
2022/04/03 07:56:45;;;;;;;6.57;2.97;;;7.30;99.90;;;;;;5060096;28;20299;-70
2022/04/03 07:59:11;;;;;;;8.52;3.20;;;7.00;99.90;;;;;;5046917;28;20213;-68
2022/04/03 08:01:41;;;;;;;3.90;3.03;;;6.60;99.90;;;;;;5052278;28;20200;-68
2022/04/03 08:04:09;;;;;;;3.28;2.60;;;6.50;99.90;;;;;;5052014;28;20259;-67
2022/04/03 08:06:36;;;;;;;8.63;3.45;;;6.30;99.90;;;;;;5052806;28;20261;-68
2022/04/03 08:09:03;;;;;;;4.13;3.30;;;6.30;99.90;;;;;;5060539;28;20200;-69
2022/04/03 08:11:29;;;;;;;8.13;5.05;;;6.10;99.90;;;;;;5052052;28;20665;-69
2022/04/03 08:13:56;;;;;;;5.50;3.78;;;6.00;99.90;;;;;;5060805;28;20335;-68
2022/04/03 08:16:23;;;;;;;4.78;2.72;;;5.80;99.90;;;;;;5056911;28;20190;-68
2022/04/03 08:18:51;;;;;;;5.80;3.35;;;5.80;99.90;;;;;;5061568;28;20294;-68
2022/04/03 08:21:19;;;;;;;3.17;2.72;;;5.70;99.90;;;;;;5052221;28;20206;-69
2022/04/03 08:23:46;;;;;;;5.70;3.80;;;5.50;99.90;;;;;;5067748;28;20262;-68
2022/04/03 08:26:13;;;;;;;11.52;3.20;;;5.70;99.90;;;;;;5052629;28;20203;-70
2022/04/03 08:28:40;;;;;;;4.55;3.25;;;5.80;99.90;;;;;;5052599;28;20290;-69
2022/04/03 08:31:07;;;;;;;5.35;3.80;;;5.90;99.90;;;;;;5051898;28;20204;-68
2022/04/03 08:33:34;;;;;;;4.32;2.88;;;6.00;99.90;;;;;;5052662;28;20562;-68
2022/04/03 08:36:03;;;;;;;5.15;2.70;;;6.20;99.90;;;;;;5052079;28;20247;-68
2022/04/03 08:38:30;;;;;;;4.97;2.92;;;6.40;99.90;;;;;;5052844;28;20581;-68
2022/04/03 08:40:57;;;;;;;6.30;4.30;;;6.60;99.90;;;;;;5051273;28;20274;-68
2022/04/03 08:43:24;;;;;;;3.42;2.47;;;6.70;99.90;;;;;;5052059;28;20193;-68
2022/04/03 08:45:53;;;;;;;7.22;3.13;;;7.20;99.90;;;;;;5052547;28;20483;-69
2022/04/03 08:48:20;;;;;;;6.28;2.72;;;7.50;99.90;;;;;;5030321;28;20210;-67
2022/04/03 08:50:51;;;;;;;12.05;4.30;;;7.40;99.90;;;;;;5026535;28;20208;-68
2022/04/03 08:53:22;;;;;;;5.50;3.25;;;7.50;99.90;;;;;;5027238;28;20210;-68
2022/04/03 08:55:50;;;;;;;5.47;3.53;;;7.90;99.90;;;;;;5026258;28;20207;-68
2022/04/03 08:58:20;;;;;;;4.40;3.88;;;8.60;99.90;;;;;;5024712;28;20270;-67
2022/04/03 09:00:47;;;;;;;3.33;2.65;;;9.90;99.90;;;;;;5025397;28;20227;-67
2022/04/03 09:03:14;;;;;;;7.20;1.83;;;10.70;99.90;;;;;;5025900;28;20208;-68
2022/04/03 09:05:43;;;;;;;3.47;2.30;;;11.20;99.40;;;;;;5028496;28;20226;-68
2022/04/03 09:08:11;;;;;;;5.25;2.30;;;11.60;97.20;;;;;;5029084;28;20637;-68
2022/04/03 09:10:41;;;;;;;6.97;4.57;;;11.40;96.80;;;;;;5027196;28;20855;-67
2022/04/03 09:13:08;;;;;;;8.43;4.25;;;10.90;98.00;;;;;;5027541;28;20650;-68
2022/04/03 09:15:36;;;;;;;11.63;6.25;;;10.20;99.20;;;;;;5031092;28;20756;-68
2022/04/03 09:18:06;;;;;;;5.20;2.80;;;9.70;99.90;;;;;;5025885;28;20328;-66
2022/04/03 09:20:36;;;;;;;5.53;3.47;;;9.30;99.90;;;;;;5029331;28;20273;-67
2022/04/03 09:23:04;;;;;;;12.35;7.63;;;8.70;99.90;;;;;;5031817;28;20642;-67
2022/04/03 09:25:33;;;;;;;4.03;3.10;;;8.50;99.90;;;;;;5032913;28;20238;-67
2022/04/03 09:28:02;;;;;;;4.32;2.55;;;8.00;99.90;;;;;;5036794;28;20271;-68
2022/04/03 09:30:32;;;;;;;6.03;3.88;;;7.70;99.90;;;;;;5031467;28;20646;-69
2022/04/03 09:33:00;;;;;;;3.30;2.60;;;7.70;99.90;;;;;;5032307;28;20213;-68
2022/04/03 09:35:29;;;;;;;6.20;2.90;;;7.60;99.90;;;;;;5032421;28;20240;-69
2022/04/03 09:38:07;;;;;;;5.18;3.35;;;7.50;99.90;;;;;;5032224;28;20235;-67
2022/04/03 09:40:35;;;;;;;3.53;3.20;;;7.40;99.90;;;;;;5032412;28;20219;-67
2022/04/03 09:43:21;;;;;;;6.47;3.38;;;7.10;99.90;;;;;;5033668;28;20214;-66
2022/04/03 09:45:50;;;;;;;7.70;5.30;;;6.80;99.90;;;;;;5032077;28;20262;-67
2022/04/03 09:48:25;;;;;;;8.52;6.13;;;6.90;99.90;;;;;;5030721;28;20246;-67
2022/04/03 09:51:06;;;;;;;4.95;4.45;;;6.90;99.90;;;;;;5030053;28;20859;-68
2022/04/03 09:53:52;;;;;;;6.60;5.57;;;7.00;99.90;;;;;;5030898;28;20692;-70
2022/04/03 09:56:31;;;;;;;11.52;7.07;;;7.00;99.90;;;;;;5030839;28;20665;-68
2022/04/03 09:59:04;;;;;;;5.68;4.45;;;7.20;99.90;;;;;;5016678;28;20247;-69
2022/04/03 10:01:34;;;;;;;6.63;5.18;;;7.40;99.90;;;;;;5030231;28;20208;-70
2022/04/03 10:04:02;;;;;;;6.15;4.65;;;7.50;99.90;;;;;;5031502;28;21366;-68
2022/04/03 10:06:30;;;;;;;9.77;5.05;;;8.00;99.90;;;;;;5030957;28;20216;-67
2022/04/03 10:08:58;;;;;;;7.85;3.80;;;8.80;99.90;;;;;;5029824;28;20218;-69
2022/04/03 10:11:26;;;;;;;5.45;3.00;;;10.20;99.90;;;;;;5031558;28;20212;-68
2022/04/03 10:13:53;;;;;;;4.45;3.50;;;11.20;99.90;;;;;;5031883;28;20235;-70
2022/04/03 10:16:23;;;;;;;5.20;3.45;;;11.40;99.90;;;;;;5031137;28;20233;-69
2022/04/03 10:18:50;;;;;;;4.60;3.60;;;11.60;99.90;;;;;;5030712;28;20217;-69
2022/04/03 10:21:24;;;;;;;6.28;4.05;;;11.40;99.90;;;;;;5030760;28;20916;-68
2022/04/03 10:23:53;;;;;;;2.75;1.42;;;11.30;99.90;;;;;;5033097;28;20220;-69
2022/04/03 10:26:23;;;;;;;4.72;1.65;;;11.90;99.90;;;;;;5032139;28;20215;-69
2022/04/03 10:28:54;;;;;;;5.57;2.05;;;12.60;98.00;;;;;;5031061;28;20206;-70
2022/04/03 10:31:23;;;;;;;3.75;2.25;;;13.20;95.70;;;;;;5029740;28;20214;-69
2022/04/03 10:33:51;;;;;;;4.57;2.80;;;12.90;95.90;;;;;;5032512;28;20273;-69
2022/04/03 10:36:25;;;;;;;2.90;2.60;;;12.60;96.70;;;;;;5031126;28;20581;-69
2022/04/03 10:39:04;;;;;;;2.28;1.77;;;12.30;98.80;;;;;;5018484;28;20264;-70
2022/04/03 10:41:34;;;;;;;5.88;4.03;;;12.20;98.40;;;;;;5031946;28;20343;-68
2022/04/03 10:44:18;;;;;;;4.88;3.00;;;11.90;97.80;;;;;;5030972;28;20229;-68
2022/04/03 10:47:23;;;;;;;2.20;1.80;;;11.50;98.40;;;;;;5030053;28;20232;-71
2022/04/03 10:50:00;;;;;;;3.72;1.35;;;11.20;99.90;;;;;;5032461;28;20223;-69
2022/04/03 10:52:48;;;;;;;4.97;2.00;;;10.90;99.90;;;;;;5032036;28;20211;-69
2022/04/03 10:55:20;;;;;;;5.82;2.05;;;11.20;99.90;;;;;;5032145;28;20224;-69
2022/04/03 10:57:49;;;;;;;2.10;1.58;;;11.50;99.90;;;;;;5031291;28;20214;-70
2022/04/03 11:00:33;;;;;;;2.95;1.42;;;11.70;99.90;;;;;;5032120;28;20702;-68
2022/04/03 11:03:18;;;;;;;5.95;1.83;;;11.70;99.80;;;;;;5032396;28;20215;-68
2022/04/03 11:05:46;;;;;;;3.95;1.80;;;11.60;99.90;;;;;;5030590;28;20538;-69
2022/04/03 11:08:18;;;;;;;3.28;1.50;;;11.60;99.60;;;;;;5029412;28;20559;-68
2022/04/03 11:10:48;;;;;;;2.50;1.35;;;11.60;98.70;;;;;;5031038;28;20208;-68
2022/04/03 11:13:16;;;;;;;2.83;1.50;;;11.30;97.70;;;;;;5030658;28;20286;-69
2022/04/03 11:15:51;;;;;;;2.28;1.25;;;11.40;98.40;;;;;;5029649;28;20207;-67
2022/04/03 11:18:29;;;;;;;2.95;1.55;;;11.40;98.00;;;;;;5027776;28;20681;-69
2022/04/03 11:21:08;;;;;;;2.20;1.15;;;11.60;97.50;;;;;;5030287;28;20211;-72
2022/04/03 11:23:39;;;;;;;2.65;1.20;;;11.90;97.80;;;;;;5029861;28;20292;-68
2022/04/03 11:26:07;;;;;;;3.88;1.30;;;12.00;97.00;;;;;;5030553;28;20246;-69
2022/04/03 11:28:35;;;;;;;2.78;1.77;;;11.80;95.60;;;;;;5028400;28;20867;-68
2022/04/03 11:31:04;;;;;;;4.50;2.00;;;11.90;95.80;;;;;;5028268;28;20209;-68
2022/04/03 11:33:34;;;;;;;2.78;1.40;;;12.10;94.90;;;;;;5030809;28;20300;-68
2022/04/03 11:36:06;;;;;;;2.63;1.23;;;11.90;94.80;;;;;;5031920;28;20760;-68
2022/04/03 11:38:35;;;;;;;2.85;1.30;;;11.50;94.70;;;;;;5030564;28;20227;-70
2022/04/03 11:41:04;;;;;;;5.43;1.73;;;11.10;96.50;;;;;;5030182;28;20207;-68
2022/04/03 11:43:31;;;;;;;6.60;1.10;;;10.90;98.50;;;;;;5027959;28;20215;-70
2022/04/03 11:45:59;;;;;;;2.53;1.33;;;10.50;99.90;;;;;;5028439;28;20207;-70
2022/04/03 11:48:29;;;;;;;5.13;1.88;;;10.20;99.90;;;;;;5027757;28;20204;-70
2022/04/03 11:51:12;;;;;;;3.13;1.67;;;10.20;99.90;;;;;;5026999;28;20334;-70
2022/04/03 11:53:41;;;;;;;5.32;1.92;;;9.80;99.90;;;;;;5026364;28;20228;-70
2022/04/03 11:56:11;;;;;;;2.50;1.60;;;9.70;99.90;;;;;;5027231;28;20281;-68
2022/04/03 11:58:39;;;;;;;3.08;1.70;;;9.70;99.90;;;;;;5025343;28;20204;-72
2022/04/03 12:01:09;;;;;;;3.85;1.95;;;10.00;99.90;;;;;;5025861;28;20239;-70
2022/04/03 12:03:38;;;;;;;2.38;1.42;;;10.30;99.90;;;;;;5025959;28;20679;-68
2022/04/03 12:06:17;;;;;;;4.05;1.80;;;10.50;99.90;;;;;;5028153;28;20293;-68
2022/04/03 12:08:46;;;;;;;4.15;1.60;;;10.70;99.90;;;;;;5026708;28;20658;-68
2022/04/03 12:11:24;;;;;;;2.83;1.75;;;10.60;99.90;;;;;;5028923;28;20410;-70
2022/04/03 12:13:52;;;;;;;2.90;1.25;;;10.40;99.90;;;;;;5030693;28;20311;-68
2022/04/03 12:16:23;;;;;;;3.47;2.08;;;10.30;99.90;;;;;;5030354;28;20218;-70
2022/04/03 12:19:00;;;;;;;3.88;1.55;;;10.50;99.90;;;;;;5032606;28;20223;-69
2022/04/03 12:21:43;;;;;;;2.63;1.60;;;10.50;99.90;;;;;;5029880;28;20269;-71
2022/04/03 12:24:18;;;;;;;6.25;1.65;;;10.20;99.90;;;;;;5030889;28;20368;-68
2022/04/03 12:26:47;;;;;;;4.28;1.40;;;10.10;99.90;;;;;;5030219;28;20225;-68
2022/04/03 12:29:15;;;;;;;4.07;2.88;;;10.10;99.90;;;;;;5028852;28;20751;-66
2022/04/03 12:31:42;;;;;;;2.65;1.23;;;10.30;99.90;;;;;;5027215;28;20219;-68
2022/04/03 12:34:12;;;;;;;5.80;2.03;;;10.20;97.70;;;;;;5026840;28;21329;-68
2022/04/03 12:36:43;;;;;;;4.38;1.20;;;10.00;97.10;;;;;;5030992;28;20227;-67
2022/04/03 12:39:44;;;;;;;1.90;1.70;;;10.00;97.60;;;;;;5027908;28;20215;-69
2022/04/03 12:42:17;;;;;;;2.88;1.70;;;9.80;99.50;;;;;;4986061;28;20758;-67
2022/04/03 12:44:50;;;;;;;3.10;2.10;;;9.70;99.90;;;;;;4986725;28;20232;-67
2022/04/03 12:47:19;;;;;;;3.47;1.50;;;9.80;99.90;;;;;;4992684;28;20684;-66
2022/04/03 12:50:10;;;;;;;4.15;1.65;;;9.70;99.90;;;;;;5027585;28;20204;-68
2022/04/03 12:52:44;;;;;;;3.60;1.40;;;9.50;99.90;;;;;;5030040;28;20214;-70
2022/04/03 12:55:33;;;;;;;4.18;2.05;;;9.50;99.90;;;;;;5033491;28;20235;-67
2022/04/03 12:58:33;;;;;;;2.40;1.30;;;9.40;99.90;;;;;;5031580;28;20217;-67
2022/04/03 13:01:09;;;;;;;2.47;1.27;;;9.50;99.60;;;;;;5031735;28;20285;-67
2022/04/03 13:03:38;;;;;;;3.20;1.40;;;9.70;99.40;;;;;;5031738;28;20219;-67
2022/04/03 13:06:09;;;;;;;2.00;1.42;;;9.80;99.10;;;;;;5031651;28;20212;-67
2022/04/03 13:08:57;;;;;;;5.60;2.67;;;10.10;97.50;;;;;;5032803;28;20208;-68